Time;durP1;ratioP1;P1;durP2;ratioP2;P2;SDS_P1;SDS_P2;PMS_P1;PMS_P2;Temp;Humidity;BMP_temperature;BMP_pressure;BME280_temperature;BME280_humidity;BME280_pressure;Samples;Min_cycle;Max_cycle;Signal;HPM_P1;HPM_P2
2021/05/24 02:19:37;;;;;;;2.80;2.60;;;11.10;99.90;;;;;;5111615;28;20655;-67
2021/05/24 02:22:03;;;;;;;2.67;2.47;;;11.10;99.90;;;;;;5114668;28;20676;-67
2021/05/24 02:24:28;;;;;;;3.07;2.50;;;10.90;99.90;;;;;;5114380;28;20250;-69
2021/05/24 02:26:54;;;;;;;3.23;2.70;;;10.80;99.90;;;;;;5096001;28;20203;-68
2021/05/24 02:29:19;;;;;;;5.80;2.70;;;10.70;99.90;;;;;;5096007;28;20175;-68
2021/05/24 02:31:45;;;;;;;3.40;2.97;;;10.60;99.90;;;;;;5095856;28;20196;-67
2021/05/24 02:34:11;;;;;;;2.80;2.60;;;10.50;99.90;;;;;;5095944;28;20172;-68
2021/05/24 02:36:37;;;;;;;2.97;2.67;;;10.40;99.90;;;;;;5114260;28;20211;-67
2021/05/24 02:39:09;;;;;;;3.50;3.03;;;10.40;99.90;;;;;;5114148;28;20180;-69
2021/05/24 02:41:36;;;;;;;2.17;2.00;;;10.50;99.90;;;;;;5095915;28;21037;-67
2021/05/24 02:44:02;;;;;;;2.67;2.47;;;10.60;99.90;;;;;;5114089;28;20603;-71
2021/05/24 02:46:28;;;;;;;3.80;2.90;;;10.70;99.90;;;;;;5095794;28;20204;-70
2021/05/24 02:48:54;;;;;;;3.40;2.80;;;10.80;99.90;;;;;;5114105;28;20645;-68
2021/05/24 02:51:19;;;;;;;2.70;2.50;;;10.70;99.90;;;;;;5095777;28;20279;-67
2021/05/24 02:53:45;;;;;;;2.73;2.40;;;10.70;99.90;;;;;;5114105;28;20396;-68
2021/05/24 02:56:11;;;;;;;3.10;2.90;;;10.70;99.90;;;;;;5113905;28;20718;-68
2021/05/24 02:58:36;;;;;;;3.00;2.70;;;10.70;99.90;;;;;;5114063;28;20171;-68
2021/05/24 03:01:02;;;;;;;4.60;2.70;;;10.80;99.90;;;;;;5113894;28;20183;-69
2021/05/24 03:03:30;;;;;;;5.53;2.37;;;10.80;99.90;;;;;;5113911;28;20192;-70
2021/05/24 03:05:56;;;;;;;3.03;2.70;;;10.80;99.90;;;;;;5113964;28;20921;-67
2021/05/24 03:08:21;;;;;;;2.63;2.30;;;10.70;99.90;;;;;;5113819;28;20241;-70
2021/05/24 03:10:47;;;;;;;4.23;2.33;;;10.70;99.90;;;;;;5113999;28;20537;-68
2021/05/24 03:13:13;;;;;;;2.37;2.17;;;10.80;99.90;;;;;;5113858;28;20296;-68
2021/05/24 03:15:38;;;;;;;3.00;2.30;;;10.80;99.90;;;;;;5113793;28;20207;-67
2021/05/24 03:18:17;;;;;;;2.13;2.03;;;10.80;99.90;;;;;;5111230;28;20232;-68
2021/05/24 03:20:42;;;;;;;2.90;2.60;;;10.80;99.90;;;;;;5113789;28;20164;-67
2021/05/24 03:23:08;;;;;;;2.87;2.47;;;10.80;99.90;;;;;;5113666;28;20196;-67
2021/05/24 03:25:34;;;;;;;4.37;2.40;;;10.90;99.90;;;;;;5113734;28;20594;-69
2021/05/24 03:28:00;;;;;;;2.87;2.57;;;10.90;99.90;;;;;;5113531;28;20220;-67
2021/05/24 03:30:26;;;;;;;2.65;2.20;;;10.80;99.90;;;;;;5113602;28;20176;-67
2021/05/24 03:32:52;;;;;;;2.50;2.30;;;11.00;99.90;;;;;;5114117;28;20253;-69
2021/05/24 03:35:18;;;;;;;2.87;2.67;;;10.90;99.90;;;;;;5113566;28;20247;-67
2021/05/24 03:37:44;;;;;;;2.77;2.50;;;10.90;99.90;;;;;;5113929;28;20208;-67
2021/05/24 03:40:11;;;;;;;3.63;2.73;;;11.10;99.90;;;;;;5113481;28;20403;-68
2021/05/24 03:42:38;;;;;;;3.95;2.42;;;11.00;99.90;;;;;;5113404;28;20524;-67
2021/05/24 03:45:05;;;;;;;2.47;2.28;;;11.10;99.90;;;;;;5115758;28;20201;-68
2021/05/24 03:47:31;;;;;;;2.78;2.40;;;11.20;99.90;;;;;;5117514;28;20553;-70
2021/05/24 03:49:57;;;;;;;4.45;2.72;;;11.20;99.90;;;;;;5117236;28;20179;-68
2021/05/24 03:52:24;;;;;;;2.77;2.57;;;11.20;99.90;;;;;;5117447;28;20195;-68
2021/05/24 03:54:50;;;;;;;5.63;2.60;;;11.20;99.90;;;;;;5098808;28;20180;-67
2021/05/24 03:57:15;;;;;;;2.93;2.23;;;11.20;99.90;;;;;;5117207;28;20225;-68
2021/05/24 03:59:41;;;;;;;5.47;3.30;;;11.20;99.90;;;;;;5117128;28;20487;-67
2021/05/24 04:02:07;;;;;;;3.20;2.90;;;11.10;99.90;;;;;;5098692;28;20207;-67
2021/05/24 04:04:33;;;;;;;4.88;2.88;;;11.10;99.90;;;;;;5098596;28;20752;-69
2021/05/24 04:07:01;;;;;;;5.30;3.97;;;11.10;99.90;;;;;;5117109;28;20211;-68
2021/05/24 04:09:26;;;;;;;4.38;2.65;;;11.20;99.90;;;;;;5117071;28;20168;-69
2021/05/24 04:11:52;;;;;;;4.97;3.27;;;11.20;99.90;;;;;;5117002;28;20253;-68
2021/05/24 04:14:18;;;;;;;3.70;3.10;;;11.40;99.90;;;;;;5116616;28;20250;-67
2021/05/24 04:16:45;;;;;;;3.22;2.92;;;11.40;99.90;;;;;;5116751;28;20225;-68
2021/05/24 04:19:11;;;;;;;3.65;2.60;;;11.40;99.90;;;;;;5097999;28;20227;-68
2021/05/24 04:21:39;;;;;;;3.80;3.00;;;11.50;99.90;;;;;;5096736;28;20240;-68
2021/05/24 04:24:06;;;;;;;4.65;2.85;;;11.50;99.90;;;;;;5098030;28;20607;-68
2021/05/24 04:26:33;;;;;;;2.63;2.42;;;11.60;99.90;;;;;;5116604;28;20567;-69
2021/05/24 04:28:59;;;;;;;3.97;3.13;;;11.60;99.90;;;;;;5116533;28;20297;-69
2021/05/24 04:31:25;;;;;;;4.07;3.47;;;11.70;99.90;;;;;;5098054;28;20184;-68
2021/05/24 04:33:51;;;;;;;5.33;2.70;;;11.70;99.90;;;;;;5116530;28;20251;-67
2021/05/24 04:36:16;;;;;;;4.70;2.63;;;11.70;99.90;;;;;;5116126;28;20221;-66
2021/05/24 04:38:42;;;;;;;3.67;2.30;;;11.80;99.90;;;;;;5116392;28;20258;-68
2021/05/24 04:41:08;;;;;;;4.43;2.70;;;11.80;99.90;;;;;;5116232;28;20172;-67
2021/05/24 04:43:38;;;;;;;3.40;2.87;;;11.80;99.90;;;;;;5097888;28;20182;-69
2021/05/24 04:46:03;;;;;;;2.78;2.55;;;11.90;99.90;;;;;;5116135;28;20412;-67
2021/05/24 04:48:29;;;;;;;3.33;3.03;;;12.00;99.90;;;;;;5097771;28;20208;-69
2021/05/24 04:50:55;;;;;;;5.20;2.77;;;12.10;99.90;;;;;;5097726;28;20172;-66
2021/05/24 04:53:20;;;;;;;4.03;2.87;;;12.10;99.90;;;;;;5115928;28;20245;-68
2021/05/24 04:55:47;;;;;;;3.33;3.03;;;12.30;99.90;;;;;;5115920;28;20209;-67
2021/05/24 04:58:12;;;;;;;3.30;2.72;;;12.30;99.90;;;;;;5115709;28;20207;-67
2021/05/24 05:00:39;;;;;;;4.33;3.33;;;12.40;99.90;;;;;;5097272;28;20561;-67
2021/05/24 05:03:05;;;;;;;3.33;2.97;;;12.60;99.90;;;;;;5115788;28;20280;-69
2021/05/24 05:05:33;;;;;;;4.07;2.97;;;12.70;99.90;;;;;;5097500;28;20172;-68
2021/05/24 05:07:59;;;;;;;4.50;2.90;;;12.80;99.90;;;;;;5097544;28;20227;-68
2021/05/24 05:10:25;;;;;;;6.90;3.20;;;12.90;99.90;;;;;;5097219;28;20469;-69
2021/05/24 05:12:50;;;;;;;3.97;2.70;;;13.00;99.90;;;;;;5097471;28;20196;-67
2021/05/24 05:15:16;;;;;;;4.10;3.53;;;13.10;99.90;;;;;;5115459;28;20172;-68
2021/05/24 05:17:42;;;;;;;4.67;3.10;;;13.10;99.90;;;;;;5115846;28;20243;-69
2021/05/24 05:20:08;;;;;;;5.83;3.27;;;13.10;99.90;;;;;;5115392;28;20179;-69
2021/05/24 05:22:34;;;;;;;4.10;3.27;;;13.20;99.90;;;;;;5097106;28;20200;-69
2021/05/24 05:25:06;;;;;;;6.43;3.20;;;13.30;99.90;;;;;;5093222;28;20471;-69
2021/05/24 05:27:32;;;;;;;4.00;3.27;;;13.40;99.90;;;;;;5095298;28;20450;-67
2021/05/24 05:29:58;;;;;;;4.70;3.33;;;13.50;99.90;;;;;;5094922;28;20394;-70
2021/05/24 05:32:23;;;;;;;4.33;3.30;;;13.60;99.90;;;;;;5095134;28;20979;-69
2021/05/24 05:34:49;;;;;;;4.37;3.60;;;13.70;99.90;;;;;;5094930;28;20183;-70
2021/05/24 05:37:15;;;;;;;5.63;3.20;;;13.60;99.90;;;;;;5094808;28;20228;-68
2021/05/24 05:39:41;;;;;;;3.37;2.90;;;13.70;99.90;;;;;;5094721;28;20207;-68
2021/05/24 05:42:07;;;;;;;4.23;2.70;;;13.80;99.90;;;;;;5093416;28;20488;-69
2021/05/24 05:44:32;;;;;;;5.97;3.00;;;13.90;99.90;;;;;;5094805;28;20199;-69
2021/05/24 05:46:58;;;;;;;2.90;2.53;;;14.00;99.90;;;;;;5094778;28;20208;-68
2021/05/24 05:49:24;;;;;;;3.63;2.90;;;14.10;99.90;;;;;;5094541;28;20177;-69
2021/05/24 05:51:50;;;;;;;2.37;2.17;;;14.20;99.90;;;;;;5094596;28;20215;-70
2021/05/24 05:54:15;;;;;;;2.60;2.40;;;14.40;99.90;;;;;;5093123;28;20642;-69
2021/05/24 05:56:41;;;;;;;3.70;2.50;;;14.50;99.90;;;;;;5093083;28;20460;-68
2021/05/24 05:59:07;;;;;;;3.37;2.70;;;14.60;99.90;;;;;;5093052;28;20188;-68
2021/05/24 06:01:33;;;;;;;4.00;2.43;;;14.70;99.90;;;;;;5094091;28;20203;-68
2021/05/24 06:03:58;;;;;;;3.07;2.70;;;14.80;99.90;;;;;;5094384;28;20176;-68
2021/05/24 06:06:24;;;;;;;2.17;1.97;;;14.90;99.90;;;;;;5094083;28;20189;-68
2021/05/24 06:08:50;;;;;;;3.20;2.57;;;15.00;99.90;;;;;;5093957;28;20184;-69
2021/05/24 06:11:16;;;;;;;5.17;3.20;;;15.10;99.90;;;;;;5094156;28;20799;-70
2021/05/24 06:13:41;;;;;;;3.40;2.93;;;15.10;99.90;;;;;;5094061;28;20405;-70
2021/05/24 06:16:08;;;;;;;3.80;2.60;;;15.20;99.90;;;;;;5092699;28;20217;-68
2021/05/24 06:18:33;;;;;;;3.87;2.70;;;15.40;99.90;;;;;;5093999;28;20220;-70
2021/05/24 06:20:59;;;;;;;3.33;3.03;;;15.50;99.90;;;;;;5094074;28;20521;-69
2021/05/24 06:23:25;;;;;;;4.10;2.50;;;15.60;99.90;;;;;;5094105;28;20553;-71
2021/05/24 06:26:04;;;;;;;3.30;2.80;;;15.70;99.90;;;;;;5111909;28;20239;-71
2021/05/24 06:28:43;;;;;;;3.37;3.10;;;15.80;99.90;;;;;;5091654;28;20235;-69
2021/05/24 06:31:09;;;;;;;2.33;2.13;;;15.70;99.90;;;;;;5093982;28;20811;-67
2021/05/24 06:33:34;;;;;;;3.13;2.20;;;15.70;99.90;;;;;;5093935;28;20394;-69
2021/05/24 06:36:00;;;;;;;3.40;2.43;;;15.90;99.90;;;;;;5093894;28;20617;-71
2021/05/24 06:38:26;;;;;;;3.50;2.70;;;16.00;99.90;;;;;;5093635;28;20216;-69
2021/05/24 06:40:51;;;;;;;2.40;2.20;;;16.00;99.90;;;;;;5093944;28;20168;-69
2021/05/24 06:43:19;;;;;;;3.37;2.60;;;16.00;99.90;;;;;;5093699;28;20193;-68
2021/05/24 06:45:48;;;;;;;2.50;2.30;;;16.00;99.90;;;;;;5093757;28;20168;-68
2021/05/24 06:48:14;;;;;;;3.07;2.57;;;16.10;99.90;;;;;;5092928;28;20429;-68
2021/05/24 06:50:40;;;;;;;2.63;2.40;;;16.20;99.90;;;;;;5092358;28;20409;-71
2021/05/24 06:53:05;;;;;;;2.90;2.33;;;16.30;99.90;;;;;;5093566;28;20279;-68
2021/05/24 06:55:31;;;;;;;4.20;2.20;;;16.20;99.90;;;;;;5092456;28;20173;-70
2021/05/24 06:57:57;;;;;;;4.43;3.50;;;16.30;99.90;;;;;;5093995;28;20235;-68
2021/05/24 07:00:22;;;;;;;3.00;2.60;;;16.40;99.90;;;;;;5092314;28;20183;-69
2021/05/24 07:02:48;;;;;;;3.23;2.50;;;16.50;99.90;;;;;;5094020;28;20189;-69
2021/05/24 07:05:14;;;;;;;2.43;2.23;;;16.50;99.90;;;;;;5092205;28;20188;-70
2021/05/24 07:07:40;;;;;;;4.00;2.27;;;16.50;99.90;;;;;;5093474;28;20596;-68
2021/05/24 07:10:08;;;;;;;3.70;2.13;;;16.50;99.90;;;;;;5092181;28;20479;-70
2021/05/24 07:12:35;;;;;;;2.40;2.17;;;16.50;99.90;;;;;;5092347;28;21019;-70
2021/05/24 07:15:03;;;;;;;2.03;1.93;;;16.40;99.90;;;;;;5093506;28;20409;-69
2021/05/24 07:17:29;;;;;;;3.07;2.27;;;16.60;99.90;;;;;;5092181;28;20479;-68
2021/05/24 07:19:55;;;;;;;2.47;2.27;;;16.70;99.90;;;;;;5095539;28;20409;-68
2021/05/24 07:22:21;;;;;;;2.17;2.03;;;16.80;99.90;;;;;;5097674;28;20494;-69
2021/05/24 07:24:46;;;;;;;2.80;1.90;;;16.70;99.90;;;;;;5097321;28;20169;-70
2021/05/24 07:27:12;;;;;;;2.53;2.33;;;16.60;99.90;;;;;;5097388;28;20258;-70
2021/05/24 07:29:38;;;;;;;2.10;2.00;;;16.70;99.90;;;;;;5095688;28;20224;-69
2021/05/24 07:32:09;;;;;;;2.53;2.33;;;16.80;99.90;;;;;;5096995;28;20669;-68
2021/05/24 07:34:35;;;;;;;2.37;2.17;;;16.70;99.90;;;;;;5097064;28;20560;-68
2021/05/24 07:37:01;;;;;;;2.43;2.23;;;16.90;99.90;;;;;;5097176;28;20468;-68
2021/05/24 07:39:26;;;;;;;3.07;2.60;;;16.90;99.90;;;;;;5097083;28;20423;-69
2021/05/24 07:41:52;;;;;;;3.53;2.53;;;16.90;99.90;;;;;;5097086;28;20197;-68
2021/05/24 07:44:18;;;;;;;2.40;2.13;;;17.00;99.90;;;;;;5096767;28;20258;-69
2021/05/24 07:46:44;;;;;;;4.20;2.60;;;17.10;99.90;;;;;;5096913;28;20551;-70
2021/05/24 07:49:10;;;;;;;2.93;2.70;;;17.10;99.90;;;;;;5095340;28;20275;-70
2021/05/24 07:51:36;;;;;;;3.53;2.83;;;17.20;99.90;;;;;;5095307;28;20546;-71
2021/05/24 07:54:02;;;;;;;2.80;2.60;;;17.20;99.90;;;;;;5096699;28;20177;-71
2021/05/24 07:56:28;;;;;;;2.97;2.77;;;17.10;99.90;;;;;;5096558;28;20200;-71
2021/05/24 07:58:53;;;;;;;2.70;2.47;;;17.10;99.90;;;;;;5096671;28;20948;-71
2021/05/24 08:01:19;;;;;;;3.10;2.40;;;17.30;99.90;;;;;;5096613;28;20259;-67
2021/05/24 08:03:45;;;;;;;2.93;2.20;;;17.50;99.90;;;;;;5096592;28;20195;-69
2021/05/24 08:06:10;;;;;;;2.53;2.30;;;17.60;99.90;;;;;;5096451;28;20177;-70
2021/05/24 08:08:36;;;;;;;3.10;2.47;;;17.90;99.90;;;;;;5096576;28;20225;-69
2021/05/24 08:11:02;;;;;;;2.37;2.17;;;17.80;99.90;;;;;;5095085;28;20177;-69
2021/05/24 08:13:29;;;;;;;2.53;2.00;;;17.90;99.90;;;;;;5096313;28;20653;-69
2021/05/24 08:15:55;;;;;;;1.80;1.70;;;17.70;99.90;;;;;;5096366;28;20172;-69
2021/05/24 08:18:20;;;;;;;3.40;1.97;;;17.50;99.90;;;;;;5094801;28;20873;-69
2021/05/24 08:20:48;;;;;;;2.00;1.73;;;17.60;99.90;;;;;;5096245;28;20466;-70
2021/05/24 08:23:14;;;;;;;4.00;2.17;;;17.80;99.90;;;;;;5094871;28;20279;-68
2021/05/24 08:25:39;;;;;;;3.30;2.13;;;17.90;99.90;;;;;;5094819;28;20436;-68
2021/05/24 08:28:05;;;;;;;2.57;2.10;;;18.10;99.90;;;;;;5095973;28;20262;-69
2021/05/24 11:15:09;;;;;;;1.40;1.30;;;19.80;99.90;;;;;;5118235;28;21003;-70
2021/05/24 11:20:35;;;;;;;1.80;1.70;;;19.90;99.90;;;;;;5118100;28;20419;-67
2021/05/24 11:26:29;;;;;;;1.87;1.50;;;19.80;99.90;;;;;;5118019;28;20414;-68
2021/05/24 11:29:13;;;;;;;1.30;1.20;;;20.10;99.90;;;;;;5099434;28;20495;-67
2021/05/24 11:31:40;;;;;;;2.83;1.30;;;19.90;99.90;;;;;;5117888;28;20987;-67
2021/05/24 11:34:07;;;;;;;2.83;1.30;;;19.90;99.90;;;;;;5117599;28;20923;-68
2021/05/24 11:36:39;;;;;;;2.17;1.60;;;19.90;99.90;;;;;;5117516;28;20435;-68
2021/05/24 11:39:15;;;;;;;1.60;1.50;;;19.90;99.90;;;;;;5099190;28;20794;-69
2021/05/24 11:41:57;;;;;;;2.43;1.57;;;19.90;99.90;;;;;;5117544;28;20435;-69
2021/05/24 11:44:29;;;;;;;1.83;1.37;;;20.00;99.90;;;;;;5117275;28;20415;-70
2021/05/24 11:46:57;;;;;;;1.37;1.27;;;20.10;99.90;;;;;;5099144;28;20454;-68
2021/05/24 11:49:36;;;;;;;1.97;1.70;;;20.30;99.90;;;;;;5098966;28;20402;-68
2021/05/24 11:52:05;;;;;;;2.40;1.70;;;20.30;99.90;;;;;;5099076;28;20444;-67
2021/05/24 11:54:31;;;;;;;1.60;1.47;;;19.90;99.90;;;;;;5098894;28;20478;-69
2021/05/24 11:56:59;;;;;;;1.87;1.40;;;20.00;99.90;;;;;;5098564;28;20475;-67
2021/05/24 11:59:27;;;;;;;1.67;1.50;;;19.90;99.90;;;;;;5117132;28;20257;-68
2021/05/24 12:01:54;;;;;;;2.03;1.53;;;19.90;99.90;;;;;;5117248;28;20437;-70
2021/05/24 12:04:42;;;;;;;1.60;1.50;;;19.70;99.90;;;;;;5116677;28;20833;-68
2021/05/24 12:07:20;;;;;;;1.57;1.47;;;19.80;99.90;;;;;;5117155;28;20762;-68
2021/05/24 12:09:50;;;;;;;1.40;1.30;;;19.70;99.90;;;;;;5117049;28;20404;-70
2021/05/24 12:12:20;;;;;;;2.93;2.00;;;19.60;99.90;;;;;;5098557;28;20453;-69
2021/05/24 12:14:51;;;;;;;2.43;1.90;;;19.70;99.90;;;;;;5098088;28;20994;-68
2021/05/24 12:17:20;;;;;;;1.50;1.40;;;19.60;99.90;;;;;;5116945;28;20798;-67
2021/05/24 12:19:48;;;;;;;1.63;1.53;;;19.60;99.90;;;;;;5116771;28;20414;-69
2021/05/24 12:22:16;;;;;;;2.20;2.00;;;19.40;99.90;;;;;;5098291;28;20444;-69
2021/05/24 12:24:46;;;;;;;1.67;1.57;;;19.50;99.90;;;;;;5098271;28;20403;-68
2021/05/24 12:27:15;;;;;;;2.43;2.23;;;19.70;99.90;;;;;;5116735;28;20478;-67
2021/05/24 12:29:50;;;;;;;2.00;1.80;;;19.70;99.90;;;;;;5116532;28;20411;-69
2021/05/24 12:32:30;;;;;;;2.60;2.07;;;19.70;99.90;;;;;;5116667;28;20469;-67
2021/05/24 12:34:56;;;;;;;2.80;1.90;;;19.50;99.90;;;;;;5116352;28;20423;-70
2021/05/24 12:37:23;;;;;;;1.90;1.80;;;19.40;99.90;;;;;;5116538;28;20477;-68
2021/05/24 12:39:49;;;;;;;2.53;2.33;;;19.40;99.90;;;;;;5098028;28;20491;-68
2021/05/24 12:42:16;;;;;;;2.47;2.27;;;19.30;99.90;;;;;;5116434;28;20503;-69
2021/05/24 12:44:43;;;;;;;2.40;2.20;;;19.50;99.90;;;;;;5116330;28;20809;-70
2021/05/24 12:47:17;;;;;;;1.90;1.80;;;19.70;99.90;;;;;;5097980;28;20497;-68
2021/05/24 12:49:46;;;;;;;2.07;1.97;;;19.50;99.90;;;;;;5098211;28;20499;-69
2021/05/24 12:52:13;;;;;;;2.47;2.27;;;19.40;99.90;;;;;;5116403;28;20439;-70
2021/05/24 12:54:46;;;;;;;2.50;2.30;;;19.30;99.90;;;;;;5116063;28;20433;-68
2021/05/24 12:57:14;;;;;;;2.80;2.60;;;19.40;99.90;;;;;;5116150;28;20801;-68
2021/05/24 12:59:46;;;;;;;3.60;3.30;;;19.30;99.90;;;;;;5115925;28;20498;-68
2021/05/24 13:02:12;;;;;;;3.87;3.57;;;19.10;99.90;;;;;;5097611;28;20475;-68
2021/05/24 13:04:38;;;;;;;5.77;5.17;;;19.10;99.90;;;;;;5115830;28;20410;-69
2021/05/24 13:07:13;;;;;;;6.70;5.30;;;19.20;99.90;;;;;;5115966;28;20447;-68
2021/05/24 13:09:42;;;;;;;5.70;5.10;;;19.10;99.90;;;;;;5115811;28;20190;-68
2021/05/24 13:12:23;;;;;;;5.23;4.27;;;19.10;99.90;;;;;;5115803;28;20468;-68
2021/05/24 13:14:55;;;;;;;4.20;3.90;;;19.10;99.90;;;;;;5115504;28;20463;-69
2021/05/24 13:23:16;;;;;;;5.37;4.23;;;19.70;99.90;;;;;;5116273;28;20440;-69
2021/05/24 13:28:52;;;;;;;5.27;3.50;;;19.50;99.90;;;;;;5070333;28;20415;-68
2021/05/24 13:31:40;;;;;;;4.73;3.90;;;19.50;99.90;;;;;;5115361;28;20498;-68
2021/05/24 13:34:07;;;;;;;3.73;3.43;;;19.60;99.90;;;;;;5115208;28;20397;-70
2021/05/24 13:36:36;;;;;;;3.40;3.20;;;19.50;99.90;;;;;;5096494;28;20450;-69
2021/05/24 13:39:18;;;;;;;3.10;2.80;;;19.40;99.90;;;;;;5115168;28;20745;-70
2021/05/24 13:41:45;;;;;;;2.97;2.77;;;19.70;99.90;;;;;;5096955;28;20996;-69
2021/05/24 13:44:16;;;;;;;2.80;2.60;;;19.70;99.90;;;;;;5115043;28;20411;-69
2021/05/24 13:46:43;;;;;;;3.30;3.00;;;19.60;99.90;;;;;;5096747;28;20457;-68
2021/05/24 13:49:10;;;;;;;3.10;2.80;;;19.80;99.90;;;;;;5114919;28;20403;-68
2021/05/24 13:51:38;;;;;;;4.67;3.70;;;19.90;99.90;;;;;;5114992;28;20471;-68
2021/05/24 13:54:04;;;;;;;3.23;2.93;;;19.90;99.90;;;;;;5114895;28;20510;-68
2021/05/24 13:56:30;;;;;;;6.10;3.00;;;20.10;99.90;;;;;;5114812;28;20967;-69
2021/05/24 13:58:56;;;;;;;3.47;3.10;;;20.20;99.90;;;;;;5114704;28;20515;-70
2021/05/24 14:01:22;;;;;;;3.30;3.07;;;20.10;99.90;;;;;;5114813;28;20178;-70
2021/05/24 14:03:49;;;;;;;2.80;2.60;;;20.10;99.90;;;;;;5114745;28;20809;-69
2021/05/24 14:06:16;;;;;;;3.77;2.63;;;20.30;99.90;;;;;;5114491;28;20429;-69
2021/05/24 14:08:46;;;;;;;3.17;2.93;;;20.20;99.90;;;;;;5114641;28;20427;-68
2021/05/24 14:11:13;;;;;;;2.90;2.57;;;20.30;99.90;;;;;;5114632;28;20403;-68
2021/05/24 14:13:39;;;;;;;4.50;2.67;;;20.10;99.90;;;;;;5114606;28;20415;-69
2021/05/24 14:16:11;;;;;;;2.90;2.70;;;20.30;99.90;;;;;;5114155;28;20466;-70
2021/05/24 14:18:37;;;;;;;2.43;2.23;;;20.20;99.90;;;;;;5114439;28;20463;-68
2021/05/24 14:21:03;;;;;;;3.33;2.53;;;20.60;99.90;;;;;;5096126;28;20772;-69
2021/05/24 14:23:29;;;;;;;2.10;1.97;;;20.60;99.90;;;;;;5096069;28;20420;-69
2021/05/24 14:25:55;;;;;;;2.63;2.20;;;20.60;99.90;;;;;;5096039;28;20400;-69
2021/05/24 14:28:21;;;;;;;2.47;2.27;;;20.60;99.90;;;;;;5113921;28;20435;-69
2021/05/24 14:30:47;;;;;;;2.90;2.67;;;20.50;99.90;;;;;;5114395;28;20185;-69
2021/05/24 14:33:13;;;;;;;2.80;2.30;;;20.60;99.90;;;;;;5114148;28;20191;-68
2021/05/24 14:35:39;;;;;;;3.40;2.50;;;20.60;99.90;;;;;;5114067;28;20448;-70
2021/05/24 14:38:06;;;;;;;4.77;2.53;;;20.40;99.90;;;;;;5095757;28;21042;-69
2021/05/24 14:41:01;;;;;;;1.83;1.73;;;20.60;99.90;;;;;;5119798;28;20238;-70
2021/05/24 14:43:27;;;;;;;1.90;1.80;;;20.70;99.90;;;;;;5113954;28;20427;-69
2021/05/24 14:45:58;;;;;;;2.07;1.87;;;20.60;99.90;;;;;;5095903;28;20564;-68
2021/05/24 14:48:24;;;;;;;2.43;2.23;;;20.60;99.90;;;;;;5114148;28;20445;-68
2021/05/24 14:50:51;;;;;;;2.43;1.90;;;20.60;99.90;;;;;;5114093;28;20395;-68
2021/05/24 14:53:21;;;;;;;2.00;1.70;;;21.10;99.90;;;;;;5114048;28;20969;-69
2021/05/24 14:55:46;;;;;;;2.30;2.20;;;21.20;99.90;;;;;;5114102;28;20408;-70
2021/05/24 14:58:12;;;;;;;2.37;1.80;;;21.10;99.90;;;;;;5113883;28;20576;-68
2021/05/24 15:00:38;;;;;;;3.40;2.00;;;21.20;99.90;;;;;;5113893;28;20168;-69
2021/05/24 15:03:04;;;;;;;2.00;1.80;;;21.50;99.90;;;;;;5113831;28;20420;-69
2021/05/24 15:05:30;;;;;;;2.07;1.87;;;21.40;99.90;;;;;;5113951;28;20629;-69
2021/05/24 15:07:58;;;;;;;1.70;1.60;;;21.20;99.90;;;;;;5114291;28;20964;-68
2021/05/24 15:10:24;;;;;;;2.63;2.40;;;21.10;99.90;;;;;;5113844;28;20193;-71
2021/05/24 15:12:51;;;;;;;2.90;1.70;;;21.00;99.90;;;;;;5095744;28;20447;-68
2021/05/24 15:15:18;;;;;;;1.87;1.77;;;21.20;99.90;;;;;;5113821;28;20800;-69
2021/05/24 15:17:45;;;;;;;2.37;2.17;;;21.20;99.90;;;;;;5095209;28;20495;-68
2021/05/24 15:20:11;;;;;;;1.90;1.80;;;21.20;99.90;;;;;;5113807;28;20892;-70
2021/05/24 15:22:37;;;;;;;2.13;1.93;;;21.40;99.90;;;;;;5114190;28;20431;-68
2021/05/24 15:25:03;;;;;;;2.70;2.27;;;21.20;99.90;;;;;;5113711;28;20404;-69
2021/05/24 15:27:29;;;;;;;1.97;1.80;;;21.20;99.90;;;;;;5114022;28;20428;-69
2021/05/24 15:29:55;;;;;;;1.77;1.67;;;21.20;99.90;;;;;;5113692;28;20957;-69
2021/05/24 15:32:21;;;;;;;2.43;2.23;;;21.20;99.90;;;;;;5095345;28;20207;-70
2021/05/24 15:34:46;;;;;;;1.93;1.83;;;21.30;99.90;;;;;;5113756;28;20571;-70
2021/05/24 15:37:12;;;;;;;2.07;1.90;;;21.10;99.90;;;;;;5113732;28;20562;-68
2021/05/24 15:39:41;;;;;;;1.97;1.87;;;21.10;99.90;;;;;;5113708;28;20229;-69
2021/05/24 15:42:08;;;;;;;1.63;1.53;;;21.00;99.90;;;;;;5117292;28;20437;-68
2021/05/24 15:44:34;;;;;;;2.13;2.00;;;21.00;99.90;;;;;;5117469;28;20400;-69
2021/05/24 15:46:59;;;;;;;2.10;1.70;;;20.90;99.90;;;;;;5117550;28;20432;-69
2021/05/24 15:49:25;;;;;;;2.00;1.90;;;20.80;99.90;;;;;;5117225;28;20396;-69
2021/05/24 15:51:51;;;;;;;2.50;2.40;;;20.80;99.90;;;;;;5117411;28;20192;-68
2021/05/24 15:54:17;;;;;;;2.17;2.00;;;20.80;99.90;;;;;;5117045;28;20254;-68
2021/05/24 15:56:43;;;;;;;1.87;1.77;;;20.90;99.90;;;;;;5117249;28;20524;-68
2021/05/24 15:59:09;;;;;;;1.80;1.70;;;20.80;99.90;;;;;;5098777;28;20420;-69
2021/05/24 16:01:35;;;;;;;1.70;1.60;;;20.70;99.90;;;;;;5117047;28;20606;-70
2021/05/24 16:04:00;;;;;;;3.40;1.90;;;20.80;99.90;;;;;;5116944;28;20180;-68
2021/05/24 16:06:29;;;;;;;1.70;1.60;;;21.00;99.90;;;;;;5116960;28;20199;-69
2021/05/24 16:08:55;;;;;;;1.93;1.83;;;20.90;99.90;;;;;;5116853;28;20194;-69
2021/05/24 16:11:21;;;;;;;2.37;2.23;;;20.70;99.90;;;;;;5116897;28;20416;-69
2021/05/24 16:13:47;;;;;;;2.30;2.10;;;20.80;99.90;;;;;;5116818;28;20200;-69
2021/05/24 16:16:12;;;;;;;2.03;1.93;;;20.60;99.90;;;;;;5116742;28;20221;-69
2021/05/24 16:18:38;;;;;;;3.00;2.30;;;20.90;99.90;;;;;;5098056;28;20476;-68
2021/05/24 16:21:05;;;;;;;2.70;2.50;;;21.00;99.90;;;;;;5116631;28;20179;-68
2021/05/24 16:23:36;;;;;;;4.80;2.50;;;20.90;99.90;;;;;;5116472;28;20191;-68
2021/05/24 16:26:11;;;;;;;2.80;2.50;;;20.90;99.90;;;;;;5116557;28;20893;-70
2021/05/24 16:28:40;;;;;;;2.60;2.40;;;20.80;99.90;;;;;;5098217;28;20444;-68
2021/05/24 16:31:07;;;;;;;2.73;2.20;;;20.70;99.90;;;;;;5116526;28;20496;-68
2021/05/24 16:33:33;;;;;;;2.60;2.40;;;20.60;99.90;;;;;;5116254;28;20430;-70
2021/05/24 16:35:59;;;;;;;3.63;2.57;;;20.60;99.90;;;;;;5116317;28;20446;-70
2021/05/24 16:38:26;;;;;;;2.50;2.30;;;20.70;99.90;;;;;;5097847;28;20479;-70
2021/05/24 16:40:51;;;;;;;3.33;2.70;;;20.70;99.90;;;;;;5124449;27;20516;-67
2021/05/24 16:43:17;;;;;;;2.80;2.60;;;20.70;99.90;;;;;;5134768;27;20441;-70
2021/05/24 16:45:43;;;;;;;2.67;2.23;;;20.70;99.90;;;;;;5136270;27;20202;-70
2021/05/24 16:48:10;;;;;;;2.40;2.20;;;20.60;99.90;;;;;;5135782;27;20477;-68
2021/05/24 16:50:36;;;;;;;2.20;2.00;;;20.50;99.90;;;;;;5135396;27;20418;-70
2021/05/24 16:53:02;;;;;;;2.47;2.27;;;20.60;99.90;;;;;;5136408;27;20445;-68
2021/05/24 16:55:28;;;;;;;2.37;2.17;;;20.30;99.90;;;;;;5115907;27;20428;-70
2021/05/24 16:57:55;;;;;;;2.73;2.53;;;20.40;99.90;;;;;;5134338;27;20466;-68
2021/05/24 17:00:21;;;;;;;2.93;2.73;;;20.30;99.90;;;;;;5134317;27;20170;-68
2021/05/24 17:02:47;;;;;;;2.57;2.37;;;20.40;99.90;;;;;;5134679;27;20438;-68
2021/05/24 17:05:17;;;;;;;2.90;2.10;;;20.40;99.90;;;;;;5134190;27;20432;-70
2021/05/24 17:07:44;;;;;;;2.90;2.20;;;20.10;99.90;;;;;;5134554;27;20471;-67
2021/05/24 17:10:14;;;;;;;2.53;2.33;;;20.20;99.90;;;;;;5134191;27;20399;-70
2021/05/24 17:12:40;;;;;;;2.30;2.20;;;20.20;99.90;;;;;;5115743;27;20507;-68
2021/05/24 17:15:09;;;;;;;2.93;2.67;;;20.10;99.90;;;;;;5134033;27;20455;-68
2021/05/24 22:17:37;;;;;;;5.07;4.57;;;17.40;99.90;;;;;;5111291;28;20455;-69
2021/05/24 22:20:21;;;;;;;5.43;4.83;;;17.40;99.90;;;;;;5113376;28;20463;-70
2021/05/24 22:22:48;;;;;;;6.47;5.07;;;17.50;99.90;;;;;;5096426;28;20452;-70
2021/05/24 22:25:15;;;;;;;5.77;5.20;;;17.50;99.90;;;;;;5114379;28;20477;-70
2021/05/24 22:27:44;;;;;;;5.30;4.80;;;17.50;99.90;;;;;;5096420;28;20440;-67
2021/05/24 22:30:13;;;;;;;5.30;4.90;;;17.40;99.90;;;;;;5114354;28;20404;-69
2021/05/24 22:32:39;;;;;;;5.77;4.90;;;17.30;99.90;;;;;;5114623;28;20424;-69
2021/05/24 22:35:06;;;;;;;5.03;4.63;;;17.40;99.90;;;;;;5114501;28;20407;-70
2021/05/24 22:37:32;;;;;;;9.67;5.00;;;17.30;99.90;;;;;;5114430;28;20471;-67
2021/05/24 22:39:57;;;;;;;8.20;5.07;;;17.40;99.90;;;;;;5114278;28;20415;-70
2021/05/24 22:42:23;;;;;;;7.43;4.70;;;17.60;99.90;;;;;;5114533;28;20632;-68
2021/05/24 22:44:49;;;;;;;5.47;4.97;;;17.80;99.90;;;;;;5095919;28;20172;-69
2021/05/24 22:47:14;;;;;;;5.23;4.73;;;17.60;99.90;;;;;;5114283;28;20269;-68
2021/05/24 22:49:40;;;;;;;6.70;5.23;;;17.60;99.90;;;;;;5095703;28;20179;-71
2021/05/24 22:52:06;;;;;;;5.60;5.10;;;17.50;99.90;;;;;;5114319;28;20712;-67
2021/05/24 22:54:32;;;;;;;5.47;4.93;;;17.60;99.90;;;;;;5114087;28;20168;-70
2021/05/24 22:56:58;;;;;;;5.20;4.73;;;17.50;99.90;;;;;;5114268;28;20200;-69
2021/05/24 22:59:24;;;;;;;4.93;4.43;;;17.40;99.90;;;;;;5113918;28;20411;-69
2021/05/24 23:01:49;;;;;;;5.77;5.17;;;17.20;99.90;;;;;;5114024;28;20435;-70
2021/05/24 23:04:16;;;;;;;5.03;4.63;;;17.30;99.90;;;;;;5114036;28;20168;-69
2021/05/24 23:06:42;;;;;;;5.73;5.20;;;17.20;99.90;;;;;;5114011;28;20195;-67